Aérodrome :
LOGIN :

S'inscrire | Disclaimer

   EN    FR    IT 

 










Légende :    VFR   VFR Marginal   IFR   IFR Intensif   IFR Très Intensif
Visi : 
Plafond : 
>= 8 km
>= 3000ft
5 à 8 km
1000 à 3000 ft
1500m à 5 km
500 à 1000 ft
800 à 1500m
200 à 500 ft
< 800m
< 200 ft
Symboles :   Orages  Brouillard  Fortes neiges  Fortes précipitations  Vent > 20 kt
SIGMETs :   Divers  Orages  Givrage  Turbulence  Onde Orograph.  Cendres Volcan.







- Altitude de l'aérodrome : 1367 ft
- Code IATA : FDH


EDNY - Friedrichshafen

DERNIER METAR :
  • 201350Z 18005KT 9999 BKN059 11/09 Q1022

METARs EXPIRÉS :
  • 201320Z 14006KT 100V160 9999 -RA FEW048 OVC067 11/09 Q1022 RERA
  • 201250Z 09005KT 040V120 9999 -SHRA FEW010 BKN027 OVC056 10/08 Q1023
  • 201220Z 06005KT 020V100 9999 -SHRA FEW017 BKN033 OVC062 11/10 Q1023
  • 201150Z 12006KT 9999 -RA SCT012 BKN024 OVC028 11/09 Q1023
  • 201120Z 14006KT 110V180 9999 FEW016 BKN023 BKN034 12/08 Q1023

TAF TAF EDNY
Valide du 20 à 12h jusqu'au 21 à 12h UTC


201100Z 2012/2112 VRB03KT 9999 FEW020 SCT030
PROB30
TEMPO 2012/2013 30007KT SHRA BKN020TCU
TEMPO 2012/2016 22005KT
BECMG 2019/2022 05005KT
Pas de NOTAMs connus pour ce terrain.



MET'MAP, la Météo Aéronautique d'un coup d'oeil ! - Copyright ORBIFLY Décembre 2007 - Disclaimer

ORBIFLY MET'MAP TEAM :

Programmation & Développement : Alexandra Zaïnal
Conception & Développement : Baudouin d'Aumeries
Co-Programmation & Développement : Marc-Olivier Méhu
Soutien technique & logistique : Manuel Goepfert

Contact : metmap@orbifly.com




SOURCES & CREDITS :

   NOAA